Time;durP1;ratioP1;P1;durP2;ratioP2;P2;SDS_P1;SDS_P2;PMS_P1;PMS_P2;Temp;Humidity;BMP_temperature;BMP_pressure;BME280_temperature;BME280_humidity;BME280_pressure;Samples;Min_cycle;Max_cycle;Signal;HPM_P1;HPM_P2
2021/12/22 00:00:17;;;;;;;75.93;26.40;;;;;;;-3.88;100.00;102586.28;5073334;28;20126;-42
2021/12/22 00:02:46;;;;;;;75.43;26.42;;;;;;;-3.89;100.00;102587.16;5072776;28;20070;-45
2021/12/22 00:05:18;;;;;;;81.45;26.30;;;;;;;-3.89;100.00;102589.75;5071892;28;20134;-44
2021/12/22 00:07:43;;;;;;;73.10;26.55;;;;;;;-3.92;100.00;102589.81;5070352;28;20217;-43
2021/12/22 00:10:09;;;;;;;72.20;25.05;;;;;;;-3.92;100.00;102595.03;5072021;28;20027;-45
2021/12/22 00:12:34;;;;;;;75.00;25.27;;;;;;;-3.96;100.00;102591.59;5069986;28;20020;-44
2021/12/22 00:14:59;;;;;;;77.07;25.00;;;;;;;-3.98;100.00;102596.84;5073687;28;20089;-44
2021/12/22 00:17:24;;;;;;;71.75;24.00;;;;;;;-3.99;100.00;102592.53;5077296;28;20117;-42
2021/12/22 00:19:50;;;;;;;82.57;26.58;;;;;;;-4.00;100.00;102590.78;5077237;28;20031;-42
2021/12/22 00:22:15;;;;;;;80.97;27.23;;;;;;;-4.00;100.00;102596.00;5057170;28;20032;-44
2021/12/22 00:24:40;;;;;;;82.85;27.25;;;;;;;-4.02;100.00;102594.31;5059346;28;20429;-45
2021/12/22 00:27:06;;;;;;;84.70;27.90;;;;;;;-4.03;100.00;102588.22;5076549;28;20275;-45
2021/12/22 00:29:31;;;;;;;82.97;28.90;;;;;;;-4.04;100.00;102577.81;5078639;28;20020;-44
2021/12/22 00:32:09;;;;;;;82.25;26.05;;;;;;;-4.05;100.00;102574.34;5077396;28;20143;-43
2021/12/22 00:34:35;;;;;;;89.75;26.30;;;;;;;-4.04;100.00;102573.47;5057838;28;20047;-43
2021/12/22 00:37:00;;;;;;;75.32;25.58;;;;;;;-4.02;100.00;102576.91;5077401;28;20496;-43
2021/12/22 00:39:26;;;;;;;89.07;29.63;;;;;;;-4.04;100.00;102576.09;5076853;28;20100;-42
2021/12/22 00:41:51;;;;;;;96.30;31.67;;;;;;;-4.01;100.00;102580.38;5076379;28;20024;-42
2021/12/22 00:44:16;;;;;;;106.80;31.80;;;;;;;-4.01;100.00;102583.84;5078785;28;20020;-44
2021/12/22 00:46:41;;;;;;;100.65;31.52;;;;;;;-4.05;100.00;102582.19;5076219;28;20096;-45
2021/12/22 00:49:07;;;;;;;87.82;27.90;;;;;;;-4.07;100.00;102583.97;5074985;28;20047;-42
2021/12/22 00:51:32;;;;;;;76.05;26.95;;;;;;;-4.08;100.00;102582.22;5074590;28;20460;-44
2021/12/22 00:53:57;;;;;;;73.03;24.70;;;;;;;-4.10;100.00;102576.16;5076162;28;20208;-43
2021/12/22 00:56:23;;;;;;;75.47;24.27;;;;;;;-4.09;100.00;102584.84;5076623;28;20217;-41
2021/12/22 00:58:48;;;;;;;78.75;24.13;;;;;;;-4.10;100.00;102584.00;5074554;28;20304;-46
2021/12/22 01:01:13;;;;;;;73.35;24.27;;;;;;;-4.08;100.00;102584.84;5075583;28;20028;-44
2021/12/22 01:03:39;;;;;;;76.32;24.75;;;;;;;-4.10;100.00;102581.38;5076254;28;20649;-43
2021/12/22 01:06:04;;;;;;;70.93;24.83;;;;;;;-4.08;100.00;102584.84;5074116;28;20071;-45
2021/12/22 01:08:30;;;;;;;71.38;24.00;;;;;;;-4.08;100.00;102589.19;5077174;28;20052;-45
2021/12/22 01:10:56;;;;;;;76.72;24.88;;;;;;;-4.11;100.00;102590.09;5077445;28;20024;-44
2021/12/22 01:13:21;;;;;;;74.68;24.08;;;;;;;-4.13;100.00;102595.31;5077452;28;20063;-42
2021/12/22 01:15:47;;;;;;;71.10;23.63;;;;;;;-4.13;100.00;102590.13;5078070;28;20028;-43
2021/12/22 01:18:16;;;;;;;71.45;23.85;;;;;;;-4.13;100.00;102582.28;5077193;28;20024;-44
2021/12/22 01:21:04;;;;;;;68.85;24.42;;;;;;;-4.13;100.00;102577.06;5076039;28;20036;-45
2021/12/22 01:23:35;;;;;;;76.82;25.63;;;;;;;-4.12;100.00;102572.72;5078745;28;20047;-43
2021/12/22 01:26:03;;;;;;;79.15;25.92;;;;;;;-4.13;100.00;102569.25;5076808;28;20338;-42
2021/12/22 01:28:28;;;;;;;71.65;24.83;;;;;;;-4.10;100.00;102570.97;5069925;28;20048;-46
2021/12/22 01:31:00;;;;;;;74.70;25.50;;;;;;;-4.11;100.00;102577.03;5057255;28;20024;-45
2021/12/22 01:33:25;;;;;;;71.75;24.95;;;;;;;-4.13;100.00;102579.69;5056945;28;20449;-43
2021/12/22 01:35:51;;;;;;;80.72;25.52;;;;;;;-4.12;100.00;102581.41;5056937;28;20122;-44
2021/12/22 01:38:16;;;;;;;73.05;24.73;;;;;;;-4.12;100.00;102570.97;5058158;28;20031;-43
2021/12/22 01:40:43;;;;;;;74.25;25.15;;;;;;;-4.15;100.00;102563.19;5056978;28;20024;-45
2021/12/22 01:43:10;;;;;;;72.53;25.00;;;;;;;-4.14;100.00;102564.03;5038880;28;20048;-43
2021/12/22 01:51:34;;;;;;;83.05;26.23;;;;;;;-4.13;100.00;102561.41;5055114;28;20059;-47
2021/12/22 01:54:04;;;;;;;82.65;25.42;;;;;;;-4.14;100.00;102557.09;5055936;28;20036;-43
2021/12/22 01:56:32;;;;;;;83.15;25.85;;;;;;;-4.14;100.00;102559.72;5056642;28;20012;-45
2021/12/22 01:59:00;;;;;;;84.03;26.05;;;;;;;-4.15;100.00;102554.50;5037380;28;20246;-42
2021/12/22 02:01:27;;;;;;;77.10;25.95;;;;;;;-4.13;100.00;102556.19;5055054;28;20036;-43
2021/12/22 02:03:53;;;;;;;80.43;26.85;;;;;;;-4.12;100.00;102570.13;5077304;28;20160;-44
2021/12/22 02:06:20;;;;;;;84.43;27.15;;;;;;;-4.14;100.00;102572.75;5076914;28;20612;-45
2021/12/22 02:08:46;;;;;;;83.97;26.10;;;;;;;-4.13;100.00;102571.00;5076595;28;20051;-44
2021/12/22 02:11:14;;;;;;;80.25;25.85;;;;;;;-4.14;100.00;102572.75;5076079;28;20020;-43
2021/12/22 02:13:44;;;;;;;79.22;26.17;;;;;;;-4.13;100.00;102574.47;5075972;28;20024;-42
2021/12/22 02:16:14;;;;;;;86.38;26.40;;;;;;;-4.13;100.00;102577.06;5077106;28;20070;-45
2021/12/22 02:18:44;;;;;;;77.15;24.98;;;;;;;-4.15;100.00;102578.00;5076183;28;20036;-43
2021/12/22 02:21:10;;;;;;;77.78;25.95;;;;;;;-4.14;100.00;102574.47;5074837;28;20429;-44
2021/12/22 02:23:36;;;;;;;77.13;25.77;;;;;;;-4.15;100.00;102578.84;5076298;28;20146;-42
2021/12/22 02:26:16;;;;;;;86.25;25.40;;;;;;;-4.16;100.00;102568.44;5076660;28;20115;-44
2021/12/22 02:28:49;;;;;;;73.50;24.65;;;;;;;-4.17;100.00;102574.56;5066395;28;20119;-43
2021/12/22 02:31:18;;;;;;;74.65;25.13;;;;;;;-4.16;100.00;102574.53;5057089;28;20495;-46
2021/12/22 02:33:48;;;;;;;72.47;25.05;;;;;;;-4.17;100.00;102578.00;5056663;28;20456;-44
2021/12/22 02:38:44;;;;;;;73.18;25.30;;;;;;;-4.19;100.00;102582.41;5055959;28;20036;-44
2021/12/22 02:41:13;;;;;;;79.55;25.63;;;;;;;-4.21;100.00;102581.56;5056595;28;20113;-44
2021/12/22 02:43:52;;;;;;;78.25;25.63;;;;;;;-4.21;100.00;102581.56;5055460;28;20446;-43
2021/12/22 02:46:21;;;;;;;84.57;25.30;;;;;;;-4.20;100.00;102570.22;5056493;28;20437;-43
2021/12/22 02:48:47;;;;;;;79.70;25.33;;;;;;;-4.22;100.00;102564.19;5056646;28;20029;-45
2021/12/22 02:51:14;;;;;;;71.47;25.17;;;;;;;-4.24;100.00;102560.72;5055080;28;20049;-43
2021/12/22 02:53:47;;;;;;;79.20;26.50;;;;;;;-4.24;100.00;102562.47;5056676;28;20244;-43
2021/12/22 02:56:25;;;;;;;83.60;26.30;;;;;;;-4.24;100.00;102571.16;5038556;28;20021;-43
2021/12/22 03:06:29;;;;;;;78.32;24.88;;;;;;;-4.34;100.00;102575.66;5075535;28;20309;-45
2021/12/22 03:08:54;;;;;;;78.22;26.55;;;;;;;-4.35;100.00;102578.28;5076594;28;20028;-45
2021/12/22 03:11:19;;;;;;;86.07;25.98;;;;;;;-4.35;100.00;102578.28;5076816;28;20061;-45
2021/12/22 03:13:45;;;;;;;84.03;26.23;;;;;;;-4.37;100.00;102572.22;5075614;28;20099;-45
2021/12/22 03:16:10;;;;;;;73.75;26.00;;;;;;;-4.37;100.00;102577.44;5075308;28;20101;-44
2021/12/22 03:18:36;;;;;;;79.45;25.83;;;;;;;-4.38;100.00;102575.72;5076644;28;20024;-43
2021/12/22 03:21:15;;;;;;;84.18;26.45;;;;;;;-4.39;100.00;102581.84;5074989;28;20553;-44
2021/12/22 03:23:40;;;;;;;81.35;26.10;;;;;;;-4.40;100.00;102594.00;5076279;28;20434;-42
2021/12/22 03:26:05;;;;;;;80.85;25.95;;;;;;;-4.41;100.00;102599.22;5076278;28;20020;-46
2021/12/22 03:28:31;;;;;;;74.00;24.35;;;;;;;-4.42;100.00;102592.31;5066867;28;20534;-45
2021/12/22 03:30:59;;;;;;;82.65;26.20;;;;;;;-4.44;100.00;102594.94;5055901;28;20115;-46
2021/12/22 03:33:24;;;;;;;80.10;24.52;;;;;;;-4.45;100.00;102595.78;5057078;28;20028;-45
2021/12/22 03:35:49;;;;;;;78.70;24.60;;;;;;;-4.50;100.00;102595.88;5054523;28;20217;-46
2021/12/22 03:38:15;;;;;;;80.00;24.95;;;;;;;-4.51;100.00;102601.97;5056343;28;20303;-46
2021/12/22 03:40:40;;;;;;;85.10;26.30;;;;;;;-4.52;100.00;102600.22;5055501;28;20491;-44
2021/12/22 03:43:05;;;;;;;78.88;26.13;;;;;;;-4.53;100.00;102593.31;5054236;28;20647;-44
2021/12/22 03:45:31;;;;;;;75.90;25.55;;;;;;;-4.53;100.00;102590.72;5056405;28;20025;-43
2021/12/22 03:47:56;;;;;;;85.32;24.98;;;;;;;-4.57;100.00;102580.31;5055562;28;20519;-45
2021/12/22 03:50:21;;;;;;;80.80;25.65;;;;;;;-4.57;100.00;102589.00;5054434;28;20056;-43
2021/12/22 03:52:49;;;;;;;74.80;24.85;;;;;;;-4.58;100.00;102584.69;5055307;28;20487;-44
2021/12/22 03:55:14;;;;;;;85.32;25.95;;;;;;;-4.59;100.00;102582.94;5056208;28;20008;-46
2021/12/22 03:57:40;;;;;;;79.28;25.23;;;;;;;-4.57;100.00;102577.72;5053928;28;20491;-48
2021/12/22 04:00:09;;;;;;;102.88;25.02;;;;;;;-4.57;100.00;102580.31;5060238;28;20020;-44
2021/12/22 04:02:35;;;;;;;84.72;24.20;;;;;;;-4.58;100.00;102576.88;5075621;28;20077;-43
2021/12/22 04:05:00;;;;;;;76.93;25.40;;;;;;;-4.57;100.00;102588.16;5074776;28;20028;-44
2021/12/22 04:07:25;;;;;;;77.85;25.90;;;;;;;-4.58;100.00;102579.47;5076142;28;20425;-42
2021/12/22 04:09:52;;;;;;;82.03;26.02;;;;;;;-4.56;100.00;102582.06;5075819;28;20047;-44
2021/12/22 04:12:17;;;;;;;75.90;25.40;;;;;;;-4.58;100.00;102578.59;5074531;28;20035;-45
2021/12/22 04:14:43;;;;;;;84.03;26.50;;;;;;;-4.58;100.00;102584.69;5075691;28;20017;-45
2021/12/22 04:17:08;;;;;;;81.55;25.38;;;;;;;-4.61;100.00;102574.28;5075678;28;20028;-45
2021/12/22 04:19:34;;;;;;;74.68;25.63;;;;;;;-4.58;100.00;102574.25;5075693;28;20020;-45
2021/12/22 04:21:59;;;;;;;71.38;26.42;;;;;;;-4.58;100.00;102574.25;5074456;28;20392;-47
2021/12/22 04:24:25;;;;;;;84.70;26.30;;;;;;;-4.60;100.00;102570.81;5075667;28;20028;-43
2021/12/22 04:26:51;;;;;;;77.97;26.35;;;;;;;-4.59;100.00;102569.06;5056670;28;20069;-44
2021/12/22 04:29:17;;;;;;;88.25;25.85;;;;;;;-4.58;100.00;102568.16;5060310;28;20443;-46
2021/12/22 04:31:42;;;;;;;73.35;25.23;;;;;;;-4.58;100.00;102566.44;5055441;28;20028;-46
2021/12/22 04:34:08;;;;;;;80.22;25.55;;;;;;;-4.58;100.00;102563.84;5055694;28;20099;-43
2021/12/22 04:36:38;;;;;;;73.88;24.92;;;;;;;-4.57;100.00;102560.31;5053928;28;20063;-44
2021/12/22 04:39:05;;;;;;;76.97;25.90;;;;;;;-4.56;100.00;102554.25;5054461;28;20063;-45
2021/12/22 04:41:31;;;;;;;83.40;25.48;;;;;;;-4.54;100.00;102547.25;5055103;28;20375;-45
2021/12/22 04:43:56;;;;;;;72.95;24.30;;;;;;;-4.55;100.00;102549.88;5054119;28;20597;-47
2021/12/22 04:46:22;;;;;;;76.97;24.48;;;;;;;-4.57;100.00;102547.28;5056028;28;20051;-46
2021/12/22 04:48:48;;;;;;;74.15;25.58;;;;;;;-4.56;100.00;102543.81;5055296;28;20586;-45
2021/12/22 04:51:22;;;;;;;83.82;26.02;;;;;;;-4.55;100.00;102544.66;5053755;28;20948;-43
2021/12/22 04:54:44;;;;;;;77.80;25.23;;;;;;;-4.57;100.00;102539.47;5054635;28;20028;-45
2021/12/22 04:56:34;;;;;;;77.25;24.83;;;;;;;-4.55;100.00;102547.28;5047500;28;20056;-44
2021/12/22 04:58:59;;;;;;;78.50;24.52;;;;;;;-4.57;100.00;102541.22;5054262;28;20043;-43
2021/12/22 05:01:24;;;;;;;73.07;24.30;;;;;;;-4.57;100.00;102542.06;5072539;28;20024;-43
2021/12/22 05:03:50;;;;;;;74.70;25.50;;;;;;;-4.59;100.00;102541.25;5078764;28;20020;-44
2021/12/22 05:06:15;;;;;;;73.45;25.40;;;;;;;-4.58;100.00;102539.47;5057417;28;20503;-44
2021/12/22 05:08:40;;;;;;;77.57;25.23;;;;;;;-4.58;100.00;102539.47;5077944;28;20443;-44
2021/12/22 05:11:06;;;;;;;76.20;24.20;;;;;;;-4.60;100.00;102525.63;5060603;28;20040;-42
2021/12/22 05:13:33;;;;;;;74.25;25.75;;;;;;;-4.58;100.00;102535.16;5078763;28;20020;-42
2021/12/22 05:15:58;;;;;;;73.03;23.48;;;;;;;-4.60;100.00;102525.63;5078392;28;20425;-43
2021/12/22 05:18:36;;;;;;;81.93;24.80;;;;;;;-4.63;100.00;102529.16;5060463;28;20082;-43
2021/12/22 05:21:02;;;;;;;65.53;23.15;;;;;;;-4.61;100.00;102534.34;5077129;28;20024;-43
2021/12/22 05:23:27;;;;;;;68.75;23.30;;;;;;;-4.60;100.00;102536.03;5079114;28;20028;-42
2021/12/22 05:25:52;;;;;;;75.05;24.73;;;;;;;-4.61;100.00;102529.13;5078839;28;20147;-45
2021/12/22 05:28:18;;;;;;;69.32;24.77;;;;;;;-4.60;100.00;102536.94;5071155;28;20037;-43
2021/12/22 05:30:46;;;;;;;67.78;23.58;;;;;;;-4.60;100.00;102531.72;5057817;28;20563;-42
2021/12/22 05:33:11;;;;;;;70.00;24.17;;;;;;;-4.58;100.00;102531.66;5058776;28;20028;-47
2021/12/22 05:35:36;;;;;;;71.15;22.83;;;;;;;-4.61;100.00;102529.13;5076998;28;20472;-45
2021/12/22 05:38:02;;;;;;;73.22;22.95;;;;;;;-4.61;100.00;102527.38;5077279;28;20024;-43
2021/12/22 05:40:28;;;;;;;62.13;22.30;;;;;;;-4.62;100.00;102536.06;5077496;28;20482;-42
2021/12/22 05:42:53;;;;;;;71.28;23.63;;;;;;;-4.65;100.00;102524.81;5076930;28;20026;-41
2021/12/22 05:45:19;;;;;;;72.63;22.92;;;;;;;-4.66;100.00;102528.34;5077563;28;20016;-44
2021/12/22 05:47:44;;;;;;;68.82;23.42;;;;;;;-4.68;100.00;102521.38;5077184;28;20206;-45
2021/12/22 05:50:09;;;;;;;66.88;23.02;;;;;;;-4.70;100.00;102514.44;5076447;28;20048;-45
2021/12/22 05:52:35;;;;;;;75.65;23.42;;;;;;;-4.67;100.00;102514.41;5074978;28;20027;-42
2021/12/22 05:55:01;;;;;;;65.93;22.42;;;;;;;-4.68;100.00;102517.91;5077538;28;20407;-44
2021/12/22 05:57:26;;;;;;;63.08;21.15;;;;;;;-4.68;100.00;102518.78;5076904;28;20028;-44
2021/12/22 05:59:51;;;;;;;64.82;21.92;;;;;;;-4.68;100.00;102512.72;5076402;28;20332;-47
2021/12/22 06:02:16;;;;;;;67.80;22.33;;;;;;;-4.69;100.00;102509.22;5077105;28;20454;-44
2021/12/22 06:04:42;;;;;;;67.10;21.63;;;;;;;-4.70;100.00;102507.50;5076319;28;20103;-44
2021/12/22 06:07:07;;;;;;;61.97;21.20;;;;;;;-4.71;100.00;102508.38;5077059;28;20019;-44
2021/12/22 06:09:32;;;;;;;66.40;21.92;;;;;;;-4.73;100.00;102520.59;5058425;28;20191;-43
2021/12/22 06:11:58;;;;;;;58.72;21.23;;;;;;;-4.75;100.00;102514.53;5058371;28;20038;-44
2021/12/22 06:14:23;;;;;;;62.58;21.52;;;;;;;-4.75;100.00;102531.91;5058223;28;20031;-45
2021/12/22 06:16:49;;;;;;;59.83;20.27;;;;;;;-4.77;100.00;102518.91;5058464;28;20530;-44
2021/12/22 06:19:15;;;;;;;70.43;21.55;;;;;;;-4.79;100.00;102525.00;5077325;28;20578;-47
2021/12/22 06:21:41;;;;;;;57.75;21.02;;;;;;;-4.80;100.00;102520.69;5074899;28;20226;-44
2021/12/22 06:24:07;;;;;;;63.78;21.58;;;;;;;-4.81;100.00;102526.78;5076055;28;20023;-46
2021/12/22 06:26:33;;;;;;;57.55;20.55;;;;;;;-4.81;100.00;102532.84;5077300;28;20049;-45
2021/12/22 06:28:58;;;;;;;61.55;21.15;;;;;;;-4.82;100.00;102527.66;5075770;28;20212;-45
2021/12/22 06:31:23;;;;;;;69.18;21.63;;;;;;;-4.82;100.00;102530.25;5075957;28;20035;-43
2021/12/22 06:33:49;;;;;;;60.53;20.20;;;;;;;-4.84;100.00;102530.28;5075594;28;20032;-42
2021/12/22 06:36:14;;;;;;;63.42;21.20;;;;;;;-4.85;100.00;102518.16;5075087;28;20039;-44
2021/12/22 06:38:39;;;;;;;59.88;20.67;;;;;;;-4.85;100.00;102519.88;5075464;28;20526;-42
2021/12/22 06:41:05;;;;;;;53.55;19.95;;;;;;;-4.89;100.00;102522.56;5075301;28;20028;-44
2021/12/22 06:43:31;;;;;;;71.65;21.67;;;;;;;-4.89;100.00;102529.47;5074798;28;20044;-45
2021/12/22 06:45:56;;;;;;;61.28;20.92;;;;;;;-4.89;100.00;102529.47;5074601;28;20066;-45
2021/12/22 06:48:22;;;;;;;60.95;20.45;;;;;;;-4.89;100.00;102532.09;5076399;28;20463;-41
2021/12/22 06:50:47;;;;;;;62.95;21.05;;;;;;;-4.90;100.00;102538.19;5074398;28;20123;-42
2021/12/22 06:53:12;;;;;;;64.47;20.05;;;;;;;-4.92;100.00;102529.50;5075664;28;20169;-44
2021/12/22 06:55:37;;;;;;;56.17;19.67;;;;;;;-4.95;100.00;102527.81;5075775;28;20062;-44
2021/12/22 06:58:03;;;;;;;61.13;20.23;;;;;;;-4.95;100.00;102533.03;5056283;28;20123;-47
2021/12/22 07:00:29;;;;;;;65.75;20.70;;;;;;;-4.97;100.00;102520.91;5074588;28;20027;-46
2021/12/22 07:02:56;;;;;;;59.70;20.30;;;;;;;-4.98;100.00;102538.28;5074593;28;20054;-44
2021/12/22 07:05:21;;;;;;;59.42;20.52;;;;;;;-4.96;100.00;102538.28;5074673;28;20032;-45
2021/12/22 07:07:46;;;;;;;64.80;21.05;;;;;;;-4.99;100.00;102536.56;5076342;28;20101;-43
2021/12/22 07:10:12;;;;;;;63.55;20.08;;;;;;;-5.02;100.00;102526.19;5076006;28;20020;-48
2021/12/22 07:12:43;;;;;;;55.97;19.63;;;;;;;-5.01;100.00;102533.09;5075630;28;20652;-45
2021/12/22 07:15:10;;;;;;;57.93;20.37;;;;;;;-5.02;100.00;102534.00;5075553;28;20546;-44
2021/12/22 07:17:36;;;;;;;67.18;21.13;;;;;;;-5.02;100.00;102530.50;5075931;28;20017;-44
2021/12/22 07:20:05;;;;;;;61.95;20.85;;;;;;;-5.05;100.00;102515.81;5075058;28;20055;-44
2021/12/22 07:22:30;;;;;;;54.85;20.02;;;;;;;-5.01;100.00;102522.69;5076758;28;20606;-44
2021/12/22 07:24:55;;;;;;;62.88;20.45;;;;;;;-5.00;100.00;102515.75;5075043;28;20103;-44
2021/12/22 07:27:21;;;;;;;57.45;21.00;;;;;;;-5.00;100.00;102527.03;5077115;28;20035;-46
2021/12/22 07:29:46;;;;;;;53.83;19.80;;;;;;;-5.00;100.00;102521.81;5075386;28;20059;-43
2021/12/22 07:32:11;;;;;;;59.17;21.13;;;;;;;-4.98;100.00;102529.63;5075637;28;20372;-44
2021/12/22 07:34:36;;;;;;;54.45;21.13;;;;;;;-4.99;100.00;102520.94;5074753;28;20028;-46
2021/12/22 07:37:18;;;;;;;53.88;19.98;;;;;;;-4.98;100.00;102517.44;5076203;28;20020;-42
2021/12/22 07:39:43;;;;;;;63.13;20.15;;;;;;;-4.96;100.00;102526.09;5076148;28;20039;-45
2021/12/22 07:42:09;;;;;;;57.90;20.35;;;;;;;-4.95;100.00;102524.38;5075782;28;20046;-42
2021/12/22 07:44:34;;;;;;;63.75;20.70;;;;;;;-4.94;100.00;102529.56;5073754;28;20335;-42
2021/12/22 07:47:00;;;;;;;56.53;20.45;;;;;;;-4.93;100.00;102525.22;5075208;28;20024;-43
2021/12/22 07:49:25;;;;;;;59.53;20.75;;;;;;;-4.94;100.00;102529.56;5074733;28;20034;-41
2021/12/22 07:51:50;;;;;;;65.20;20.33;;;;;;;-4.94;100.00;102518.25;5075191;28;20020;-43
2021/12/22 07:54:15;;;;;;;59.67;20.00;;;;;;;-4.93;100.00;102525.22;5076482;28;20573;-45
2021/12/22 07:56:41;;;;;;;55.38;20.17;;;;;;;-4.90;100.00;102527.78;5076214;28;20016;-44
2021/12/22 07:59:06;;;;;;;61.08;19.65;;;;;;;-4.88;100.00;102519.03;5075833;28;20024;-45
2021/12/22 08:01:32;;;;;;;59.28;20.88;;;;;;;-4.91;100.00;102513.00;5076444;28;20119;-44
2021/12/22 08:03:58;;;;;;;53.55;20.13;;;;;;;-4.83;100.00;102515.53;5075653;28;20036;-45
2021/12/22 08:06:23;;;;;;;54.15;20.35;;;;;;;-4.82;100.00;102517.22;5074739;28;20044;-43
2021/12/22 08:08:49;;;;;;;60.42;21.23;;;;;;;-4.80;100.00;102518.06;5075871;28;20127;-44
2021/12/22 08:11:14;;;;;;;56.90;20.30;;;;;;;-4.80;100.00;102503.31;5076250;28;20318;-46
2021/12/22 08:13:39;;;;;;;64.57;21.42;;;;;;;-4.74;100.00;102502.34;5075155;28;20540;-43
2021/12/22 08:16:05;;;;;;;59.53;19.63;;;;;;;-4.70;100.00;102511.84;5075865;28;20058;-42
2021/12/22 08:18:30;;;;;;;61.83;21.67;;;;;;;-4.66;100.00;102516.16;5076450;28;20384;-43
2021/12/22 08:20:56;;;;;;;57.20;21.35;;;;;;;-4.62;100.00;102517.81;5073953;28;20478;-47
2021/12/22 08:23:21;;;;;;;58.83;20.75;;;;;;;-4.58;100.00;102511.69;5076384;28;20121;-46
2021/12/22 08:25:47;;;;;;;58.15;21.95;;;;;;;-4.54;100.00;102508.13;5075320;28;20036;-45
2021/12/22 08:28:13;;;;;;;63.45;19.45;;;;;;;-4.50;100.00;102514.16;5070286;28;20039;-43
2021/12/22 08:30:38;;;;;;;53.70;19.20;;;;;;;-4.45;100.00;102522.78;5055269;28;20087;-43
2021/12/22 08:33:09;;;;;;;49.22;19.65;;;;;;;-4.42;100.00;102514.91;5056795;28;20073;-42
2021/12/22 08:38:50;;;;;;;60.40;19.23;;;;;;;-4.39;100.00;102517.47;5062761;28;20045;-46
2021/12/22 08:41:05;;;;;;;51.85;17.90;;;;;;;-4.32;100.00;102513.88;5078625;28;20039;-43
2021/12/22 08:43:30;;;;;;;57.70;19.95;;;;;;;-4.29;100.00;102518.22;5079041;28;20617;-43
2021/12/22 08:45:55;;;;;;;58.83;18.90;;;;;;;-4.28;100.00;102514.69;5079426;28;20038;-42
2021/12/22 08:48:21;;;;;;;49.30;18.77;;;;;;;-4.23;100.00;102514.63;5080447;28;20360;-45
2021/12/22 08:50:46;;;;;;;57.20;19.38;;;;;;;-4.22;100.00;102513.75;5078072;28;20071;-43
2021/12/22 08:53:11;;;;;;;50.60;20.23;;;;;;;-4.19;100.00;102505.84;5079626;28;20180;-43
2021/12/22 08:55:36;;;;;;;46.75;19.58;;;;;;;-4.15;100.00;102499.72;5078942;28;20524;-44
2021/12/22 08:58:02;;;;;;;59.35;19.88;;;;;;;-4.13;100.00;102511.84;5059875;28;20039;-42
2021/12/22 09:00:27;;;;;;;54.38;20.27;;;;;;;-4.08;100.00;102513.53;5078090;28;20347;-41
2021/12/22 09:02:52;;;;;;;52.63;19.60;;;;;;;-4.05;100.00;102516.94;5079071;28;20032;-45
2021/12/22 09:05:18;;;;;;;45.58;19.27;;;;;;;-4.00;100.00;102512.50;5059981;28;20332;-41
2021/12/22 09:07:43;;;;;;;48.15;19.60;;;;;;;-3.96;100.00;102515.91;5079449;28;20024;-44
2021/12/22 09:10:09;;;;;;;57.30;20.88;;;;;;;-3.91;100.00;102508.88;5078756;28;20012;-43
2021/12/22 09:12:34;;;;;;;53.63;19.20;;;;;;;-3.87;100.00;102509.69;5077861;28;20040;-45
2021/12/22 09:14:59;;;;;;;64.35;21.20;;;;;;;-3.82;100.00;102508.72;5059983;28;20012;-41
2021/12/22 09:17:25;;;;;;;59.92;21.63;;;;;;;-3.78;100.00;102507.78;5079787;28;20023;-41
2021/12/22 09:19:53;;;;;;;52.10;21.30;;;;;;;-3.75;100.00;102502.50;5077990;28;20054;-42
2021/12/22 09:22:18;;;;;;;54.47;20.42;;;;;;;-3.70;100.00;102506.75;5079403;28;20271;-44
2021/12/22 09:24:43;;;;;;;59.10;21.00;;;;;;;-3.64;100.00;102512.75;5078662;28;20095;-44
2021/12/22 09:27:08;;;;;;;56.70;20.42;;;;;;;-3.56;100.00;102516.06;5077765;28;20030;-44
2021/12/22 09:29:34;;;;;;;64.80;21.17;;;;;;;-3.49;100.00;102513.34;5076990;28;20044;-42
2021/12/22 09:31:59;;;;;;;57.55;21.30;;;;;;;-3.45;100.00;102505.41;5078619;28;20119;-44
2021/12/22 09:34:24;;;;;;;55.78;21.05;;;;;;;-3.34;100.00;102512.16;5078272;28;20047;-43
2021/12/22 09:36:50;;;;;;;58.83;23.88;;;;;;;-3.30;100.00;102496.41;5078015;28;20012;-43
2021/12/22 09:39:15;;;;;;;49.13;20.20;;;;;;;-3.23;100.00;102510.22;5078327;28;20020;-42
2021/12/22 09:41:40;;;;;;;55.92;22.80;;;;;;;-3.16;100.00;102500.50;5076884;28;20648;-42
2021/12/22 09:44:06;;;;;;;55.53;20.85;;;;;;;-3.14;100.00;102499.59;5077540;28;20028;-44
2021/12/22 09:46:31;;;;;;;55.05;21.20;;;;;;;-3.02;100.00;102494.09;5077978;28;20027;-46
2021/12/22 09:49:08;;;;;;;56.13;20.55;;;;;;;-2.94;100.00;102500.91;5077075;28;20329;-43
2021/12/22 09:54:01;;;;;;;55.53;20.83;;;;;;;-2.74;100.00;102505.72;5077150;28;20028;-44
2021/12/22 09:56:30;;;;;;;60.28;22.95;;;;;;;-2.66;100.00;102494.19;5078445;28;20423;-43
2021/12/22 09:58:56;;;;;;;52.00;21.05;;;;;;;-2.58;100.00;102494.00;5076462;28;20024;-47
2021/12/22 10:01:23;;;;;;;55.47;19.90;;;;;;;-2.50;100.00;102499.06;5078890;28;20474;-44
2021/12/22 10:03:52;;;;;;;57.05;20.05;;;;;;;-2.45;100.00;102495.41;5078286;28;20109;-46
2021/12/22 10:06:17;;;;;;;56.03;20.90;;;;;;;-2.38;100.00;102506.59;5077410;28;20111;-42
2021/12/22 10:09:00;;;;;;;46.70;19.63;;;;;;;-2.33;100.00;102502.13;5077417;28;20120;-44
2021/12/22 10:11:28;;;;;;;45.83;19.33;;;;;;;-2.28;100.00;102509.88;5079095;28;20031;-44
2021/12/22 10:13:54;;;;;;;57.40;19.25;;;;;;;-2.25;100.00;102504.56;5078235;28;20036;-44
2021/12/22 10:16:22;;;;;;;48.90;18.70;;;;;;;-2.21;100.00;102507.97;5078228;28;20024;-42
2021/12/22 10:19:00;;;;;;;50.92;19.00;;;;;;;-2.19;100.00;102507.03;5076106;28;20040;-43
2021/12/22 10:21:26;;;;;;;41.75;17.50;;;;;;;-2.18;100.00;102492.19;5078674;28;20464;-44
2021/12/22 10:23:54;;;;;;;41.38;17.30;;;;;;;-2.18;100.00;102489.56;5078273;28;20081;-44
2021/12/22 10:26:22;;;;;;;48.67;17.70;;;;;;;-2.15;100.00;102487.72;5078228;28;20016;-42
2021/12/22 10:28:57;;;;;;;43.38;18.15;;;;;;;-2.15;100.00;102490.34;5077524;28;20180;-44
2021/12/22 10:31:42;;;;;;;45.63;18.17;;;;;;;-2.12;100.00;102489.41;5078626;28;20024;-41
2021/12/22 10:34:26;;;;;;;39.90;18.08;;;;;;;-2.08;100.00;102489.28;5076836;28;20462;-42
2021/12/22 10:36:53;;;;;;;44.65;17.92;;;;;;;-2.00;100.00;102488.22;5077829;28;20062;-45
2021/12/22 10:39:26;;;;;;;52.17;18.60;;;;;;;-1.94;100.00;102483.69;5077624;28;20245;-42
2021/12/22 10:41:52;;;;;;;49.08;18.23;;;;;;;-1.89;100.00;102467.88;5077932;28;20156;-42
2021/12/22 10:44:19;;;;;;;37.80;16.23;;;;;;;-1.83;100.00;102464.22;5076424;28;20585;-43
2021/12/22 10:46:46;;;;;;;40.63;17.02;;;;;;;-1.80;100.00;102465.03;5076860;28;20032;-42
2021/12/22 10:49:21;;;;;;;39.65;17.35;;;;;;;-1.77;100.00;102466.69;5076427;28;20067;-41
2021/12/22 10:51:57;;;;;;;35.90;17.08;;;;;;;-1.74;100.00;102470.06;5077459;28;20463;-42
2021/12/22 10:54:39;;;;;;;47.38;17.52;;;;;;;-1.70;100.00;102466.50;5077293;28;20020;-42
2021/12/22 10:57:09;;;;;;;36.67;17.10;;;;;;;-1.69;100.00;102455.09;5077539;28;20032;-42
2021/12/22 10:59:45;;;;;;;42.00;18.02;;;;;;;-1.61;100.00;102461.88;5057889;28;20034;-45
2021/12/22 11:02:18;;;;;;;43.03;16.95;;;;;;;-1.54;100.00;102451.19;5077589;28;20439;-44
2021/12/22 11:04:44;;;;;;;35.83;16.75;;;;;;;-1.48;100.00;102446.69;5073608;28;20106;-43
2021/12/22 11:07:20;;;;;;;38.53;17.92;;;;;;;-1.41;100.00;102438.63;5058574;28;20304;-44
2021/12/22 11:09:46;;;;;;;39.50;16.90;;;;;;;-1.34;100.00;102440.16;5076640;28;20019;-42
2021/12/22 11:12:13;;;;;;;35.88;15.45;;;;;;;-1.25;100.00;102439.03;5077689;28;20286;-42
2021/12/22 11:14:41;;;;;;;38.72;15.02;;;;;;;-1.18;100.00;102435.31;5057842;28;20402;-43
2021/12/22 11:17:12;;;;;;;33.50;14.80;;;;;;;-1.13;100.00;102436.03;5076858;28;20245;-43
2021/12/22 11:19:46;;;;;;;30.50;14.18;;;;;;;-1.04;100.00;102441.91;5058222;28;20469;-43
2021/12/22 11:22:15;;;;;;;38.05;15.73;;;;;;;-0.99;100.00;102446.09;5076481;28;20149;-45